sensor_id;sensor_type;location;lat;lon;timestamp;P1;durP1;ratioP1;P2;durP2;ratioP2
76405;SDS011;65234;50.044;19.258;2023-04-01T00:00:50;447.35;;;424.80;;
76405;SDS011;65234;50.044;19.258;2023-04-01T00:03:17;445.83;;;424.17;;
76405;SDS011;65234;50.044;19.258;2023-04-01T00:05:43;437.13;;;415.83;;
76405;SDS011;65234;50.044;19.258;2023-04-01T00:08:08;436.80;;;415.17;;
76405;SDS011;65234;50.044;19.258;2023-04-01T00:10:34;444.23;;;422.65;;
76405;SDS011;65234;50.044;19.258;2023-04-01T00:12:59;442.02;;;420.27;;
76405;SDS011;65234;50.044;19.258;2023-04-01T00:15:25;441.17;;;419.60;;
76405;SDS011;65234;50.044;19.258;2023-04-01T00:17:50;440.23;;;419.20;;
76405;SDS011;65234;50.044;19.258;2023-04-01T00:20:17;442.55;;;421.73;;
76405;SDS011;65234;50.044;19.258;2023-04-01T00:22:43;439.13;;;418.08;;
76405;SDS011;65234;50.044;19.258;2023-04-01T00:25:09;443.90;;;422.35;;
76405;SDS011;65234;50.044;19.258;2023-04-01T00:27:34;442.35;;;421.30;;
76405;SDS011;65234;50.044;19.258;2023-04-01T00:30:00;433.80;;;413.23;;
76405;SDS011;65234;50.044;19.258;2023-04-01T00:32:25;438.15;;;417.48;;
76405;SDS011;65234;50.044;19.258;2023-04-01T00:34:51;446.10;;;423.80;;
76405;SDS011;65234;50.044;19.258;2023-04-01T00:37:18;439.13;;;418.27;;
76405;SDS011;65234;50.044;19.258;2023-04-01T00:39:43;441.42;;;420.40;;
76405;SDS011;65234;50.044;19.258;2023-04-01T00:42:09;444.27;;;422.55;;
76405;SDS011;65234;50.044;19.258;2023-04-01T00:44:36;444.75;;;423.63;;
76405;SDS011;65234;50.044;19.258;2023-04-01T00:47:02;439.75;;;419.13;;
76405;SDS011;65234;50.044;19.258;2023-04-01T00:49:28;445.05;;;423.58;;
76405;SDS011;65234;50.044;19.258;2023-04-01T00:51:55;442.30;;;421.48;;
76405;SDS011;65234;50.044;19.258;2023-04-01T00:54:24;445.08;;;424.08;;
76405;SDS011;65234;50.044;19.258;2023-04-01T00:56:50;441.15;;;420.08;;
76405;SDS011;65234;50.044;19.258;2023-04-01T00:59:19;441.60;;;420.75;;
76405;SDS011;65234;50.044;19.258;2023-04-01T01:01:46;445.65;;;424.20;;
76405;SDS011;65234;50.044;19.258;2023-04-01T01:04:21;437.90;;;417.15;;
76405;SDS011;65234;50.044;19.258;2023-04-01T01:06:46;445.77;;;425.15;;
76405;SDS011;65234;50.044;19.258;2023-04-01T01:09:28;443.55;;;422.58;;
76405;SDS011;65234;50.044;19.258;2023-04-01T01:11:57;443.85;;;423.42;;
76405;SDS011;65234;50.044;19.258;2023-04-01T01:14:29;444.58;;;423.70;;
76405;SDS011;65234;50.044;19.258;2023-04-01T01:16:58;447.45;;;426.20;;
76405;SDS011;65234;50.044;19.258;2023-04-01T01:19:39;438.35;;;418.10;;
76405;SDS011;65234;50.044;19.258;2023-04-01T01:22:13;436.05;;;415.88;;
76405;SDS011;65234;50.044;19.258;2023-04-01T01:24:49;442.90;;;422.58;;
76405;SDS011;65234;50.044;19.258;2023-04-01T01:27:18;443.02;;;422.02;;
76405;SDS011;65234;50.044;19.258;2023-04-01T01:29:58;446.15;;;425.63;;
76405;SDS011;65234;50.044;19.258;2023-04-01T01:32:36;444.25;;;423.38;;
76405;SDS011;65234;50.044;19.258;2023-04-01T01:35:09;438.00;;;417.92;;
76405;SDS011;65234;50.044;19.258;2023-04-01T01:37:36;439.67;;;419.42;;
76405;SDS011;65234;50.044;19.258;2023-04-01T01:40:04;434.88;;;414.83;;
76405;SDS011;65234;50.044;19.258;2023-04-01T01:42:30;438.13;;;417.90;;
76405;SDS011;65234;50.044;19.258;2023-04-01T01:44:57;440.77;;;419.77;;
76405;SDS011;65234;50.044;19.258;2023-04-01T01:47:23;441.35;;;421.52;;
76405;SDS011;65234;50.044;19.258;2023-04-01T01:49:50;442.70;;;421.73;;
76405;SDS011;65234;50.044;19.258;2023-04-01T01:52:17;438.23;;;418.20;;
76405;SDS011;65234;50.044;19.258;2023-04-01T01:54:46;444.05;;;423.73;;
76405;SDS011;65234;50.044;19.258;2023-04-01T01:57:12;445.23;;;424.88;;
76405;SDS011;65234;50.044;19.258;2023-04-01T01:59:38;442.02;;;422.00;;
76405;SDS011;65234;50.044;19.258;2023-04-01T02:02:04;446.38;;;425.90;;
76405;SDS011;65234;50.044;19.258;2023-04-01T02:04:31;449.45;;;429.30;;
76405;SDS011;65234;50.044;19.258;2023-04-01T02:06:57;452.20;;;431.17;;
76405;SDS011;65234;50.044;19.258;2023-04-01T02:09:26;452.05;;;431.52;;
76405;SDS011;65234;50.044;19.258;2023-04-01T02:11:52;445.52;;;425.17;;
76405;SDS011;65234;50.044;19.258;2023-04-01T02:14:21;457.05;;;435.95;;
76405;SDS011;65234;50.044;19.258;2023-04-01T02:16:49;445.65;;;425.33;;
76405;SDS011;65234;50.044;19.258;2023-04-01T02:19:15;450.65;;;430.65;;
76405;SDS011;65234;50.044;19.258;2023-04-01T02:21:41;451.23;;;430.92;;
76405;SDS011;65234;50.044;19.258;2023-04-01T02:24:10;452.63;;;432.48;;
76405;SDS011;65234;50.044;19.258;2023-04-01T02:26:38;453.88;;;433.70;;
76405;SDS011;65234;50.044;19.258;2023-04-01T02:29:04;461.23;;;440.50;;
76405;SDS011;65234;50.044;19.258;2023-04-01T02:31:31;455.48;;;434.80;;
76405;SDS011;65234;50.044;19.258;2023-04-01T02:33:56;460.13;;;439.30;;
76405;SDS011;65234;50.044;19.258;2023-04-01T02:36:22;450.42;;;430.13;;
76405;SDS011;65234;50.044;19.258;2023-04-01T02:38:48;457.73;;;436.73;;
76405;SDS011;65234;50.044;19.258;2023-04-01T02:41:14;452.13;;;431.70;;
76405;SDS011;65234;50.044;19.258;2023-04-01T02:43:41;457.33;;;436.60;;
76405;SDS011;65234;50.044;19.258;2023-04-01T02:46:07;454.80;;;434.00;;
76405;SDS011;65234;50.044;19.258;2023-04-01T02:48:32;457.58;;;436.77;;
76405;SDS011;65234;50.044;19.258;2023-04-01T02:50:58;458.02;;;437.52;;
76405;SDS011;65234;50.044;19.258;2023-04-01T02:53:24;458.50;;;438.02;;
76405;SDS011;65234;50.044;19.258;2023-04-01T02:55:49;448.25;;;428.35;;
76405;SDS011;65234;50.044;19.258;2023-04-01T02:58:15;454.00;;;433.77;;
76405;SDS011;65234;50.044;19.258;2023-04-01T03:00:41;459.52;;;438.67;;
76405;SDS011;65234;50.044;19.258;2023-04-01T03:03:07;452.83;;;432.25;;
76405;SDS011;65234;50.044;19.258;2023-04-01T03:05:33;458.00;;;437.05;;
76405;SDS011;65234;50.044;19.258;2023-04-01T03:07:59;455.10;;;434.95;;
76405;SDS011;65234;50.044;19.258;2023-04-01T03:10:25;454.92;;;434.45;;
76405;SDS011;65234;50.044;19.258;2023-04-01T03:12:50;453.92;;;433.50;;
76405;SDS011;65234;50.044;19.258;2023-04-01T03:15:16;457.25;;;437.17;;
76405;SDS011;65234;50.044;19.258;2023-04-01T03:17:43;461.63;;;441.58;;
76405;SDS011;65234;50.044;19.258;2023-04-01T03:20:09;448.30;;;428.10;;
76405;SDS011;65234;50.044;19.258;2023-04-01T03:22:35;457.80;;;437.48;;
76405;SDS011;65234;50.044;19.258;2023-04-01T03:25:00;462.13;;;441.15;;
76405;SDS011;65234;50.044;19.258;2023-04-01T03:27:26;457.10;;;436.95;;
76405;SDS011;65234;50.044;19.258;2023-04-01T03:29:51;459.38;;;439.17;;
76405;SDS011;65234;50.044;19.258;2023-04-01T03:32:17;461.75;;;441.20;;
76405;SDS011;65234;50.044;19.258;2023-04-01T03:34:44;461.15;;;440.65;;
76405;SDS011;65234;50.044;19.258;2023-04-01T03:37:09;459.23;;;438.60;;
76405;SDS011;65234;50.044;19.258;2023-04-01T03:39:35;459.85;;;439.63;;
76405;SDS011;65234;50.044;19.258;2023-04-01T03:42:00;462.20;;;441.95;;
76405;SDS011;65234;50.044;19.258;2023-04-01T03:44:26;458.05;;;437.60;;
76405;SDS011;65234;50.044;19.258;2023-04-01T03:46:54;457.52;;;437.20;;
76405;SDS011;65234;50.044;19.258;2023-04-01T03:49:20;456.88;;;436.45;;
76405;SDS011;65234;50.044;19.258;2023-04-01T03:51:47;457.92;;;437.67;;
76405;SDS011;65234;50.044;19.258;2023-04-01T03:54:12;459.70;;;439.23;;
76405;SDS011;65234;50.044;19.258;2023-04-01T03:56:38;465.08;;;444.88;;
76405;SDS011;65234;50.044;19.258;2023-04-01T03:59:04;456.48;;;436.05;;
76405;SDS011;65234;50.044;19.258;2023-04-01T04:01:30;454.63;;;434.58;;
76405;SDS011;65234;50.044;19.258;2023-04-01T04:03:56;457.88;;;437.55;;
76405;SDS011;65234;50.044;19.258;2023-04-01T04:06:22;459.92;;;439.77;;
76405;SDS011;65234;50.044;19.258;2023-04-01T04:08:49;455.80;;;435.88;;
76405;SDS011;65234;50.044;19.258;2023-04-01T04:11:15;456.77;;;436.15;;
76405;SDS011;65234;50.044;19.258;2023-04-01T04:13:40;457.05;;;437.02;;
76405;SDS011;65234;50.044;19.258;2023-04-01T04:16:06;463.85;;;443.48;;
76405;SDS011;65234;50.044;19.258;2023-04-01T04:18:32;462.17;;;441.75;;
76405;SDS011;65234;50.044;19.258;2023-04-01T04:20:58;461.33;;;440.88;;
76405;SDS011;65234;50.044;19.258;2023-04-01T04:23:23;461.67;;;441.30;;
76405;SDS011;65234;50.044;19.258;2023-04-01T04:25:57;454.88;;;434.90;;
76405;SDS011;65234;50.044;19.258;2023-04-01T04:28:23;464.10;;;443.65;;
76405;SDS011;65234;50.044;19.258;2023-04-01T04:30:49;464.98;;;444.27;;
76405;SDS011;65234;50.044;19.258;2023-04-01T04:33:14;459.50;;;439.38;;
76405;SDS011;65234;50.044;19.258;2023-04-01T04:35:40;464.73;;;444.50;;
76405;SDS011;65234;50.044;19.258;2023-04-01T04:38:05;462.38;;;442.10;;
76405;SDS011;65234;50.044;19.258;2023-04-01T04:40:31;452.98;;;433.30;;
76405;SDS011;65234;50.044;19.258;2023-04-01T04:42:57;455.80;;;435.48;;
76405;SDS011;65234;50.044;19.258;2023-04-01T04:45:23;458.63;;;438.67;;
76405;SDS011;65234;50.044;19.258;2023-04-01T04:47:49;461.85;;;441.17;;
76405;SDS011;65234;50.044;19.258;2023-04-01T04:50:14;463.08;;;442.83;;
76405;SDS011;65234;50.044;19.258;2023-04-01T04:52:40;462.35;;;441.80;;
76405;SDS011;65234;50.044;19.258;2023-04-01T04:55:06;461.42;;;440.92;;
76405;SDS011;65234;50.044;19.258;2023-04-01T04:57:31;463.23;;;442.40;;
76405;SDS011;65234;50.044;19.258;2023-04-01T04:59:58;464.05;;;443.08;;
76405;SDS011;65234;50.044;19.258;2023-04-01T05:02:23;465.60;;;445.00;;
76405;SDS011;65234;50.044;19.258;2023-04-01T05:04:49;459.30;;;439.40;;
76405;SDS011;65234;50.044;19.258;2023-04-01T05:07:15;461.25;;;441.08;;
76405;SDS011;65234;50.044;19.258;2023-04-01T05:09:40;461.85;;;441.38;;
76405;SDS011;65234;50.044;19.258;2023-04-01T05:12:06;452.63;;;432.85;;
76405;SDS011;65234;50.044;19.258;2023-04-01T05:14:32;450.13;;;430.27;;
76405;SDS011;65234;50.044;19.258;2023-04-01T05:16:58;459.15;;;439.15;;
76405;SDS011;65234;50.044;19.258;2023-04-01T05:19:24;457.98;;;438.17;;
76405;SDS011;65234;50.044;19.258;2023-04-01T05:21:49;467.05;;;447.05;;
76405;SDS011;65234;50.044;19.258;2023-04-01T05:24:15;460.13;;;439.90;;
76405;SDS011;65234;50.044;19.258;2023-04-01T05:26:40;459.17;;;439.35;;
76405;SDS011;65234;50.044;19.258;2023-04-01T05:29:06;462.83;;;442.50;;
76405;SDS011;65234;50.044;19.258;2023-04-01T05:31:31;462.35;;;442.52;;
76405;SDS011;65234;50.044;19.258;2023-04-01T05:33:58;455.83;;;436.27;;
76405;SDS011;65234;50.044;19.258;2023-04-01T05:36:24;457.67;;;437.38;;
76405;SDS011;65234;50.044;19.258;2023-04-01T05:38:49;454.02;;;434.25;;
76405;SDS011;65234;50.044;19.258;2023-04-01T05:41:15;455.45;;;435.50;;
76405;SDS011;65234;50.044;19.258;2023-04-01T05:43:41;459.95;;;439.85;;
76405;SDS011;65234;50.044;19.258;2023-04-01T05:46:06;458.95;;;439.05;;
76405;SDS011;65234;50.044;19.258;2023-04-01T05:48:32;459.75;;;439.80;;
76405;SDS011;65234;50.044;19.258;2023-04-01T05:50:59;460.02;;;440.08;;
76405;SDS011;65234;50.044;19.258;2023-04-01T05:53:24;459.95;;;440.00;;
76405;SDS011;65234;50.044;19.258;2023-04-01T05:55:50;459.05;;;439.10;;
76405;SDS011;65234;50.044;19.258;2023-04-01T05:58:15;452.63;;;432.88;;
76405;SDS011;65234;50.044;19.258;2023-04-01T06:00:41;456.83;;;436.98;;
76405;SDS011;65234;50.044;19.258;2023-04-01T06:03:06;461.35;;;440.60;;
76405;SDS011;65234;50.044;19.258;2023-04-01T06:05:36;462.45;;;442.30;;
76405;SDS011;65234;50.044;19.258;2023-04-01T06:08:09;457.90;;;438.10;;
76405;SDS011;65234;50.044;19.258;2023-04-01T06:10:36;454.90;;;435.23;;
76405;SDS011;65234;50.044;19.258;2023-04-01T06:13:04;454.52;;;434.88;;
76405;SDS011;65234;50.044;19.258;2023-04-01T06:15:36;458.88;;;439.15;;
76405;SDS011;65234;50.044;19.258;2023-04-01T06:18:07;461.67;;;441.55;;
76405;SDS011;65234;50.044;19.258;2023-04-01T06:20:38;457.50;;;437.88;;
76405;SDS011;65234;50.044;19.258;2023-04-01T06:23:10;449.90;;;430.70;;
76405;SDS011;65234;50.044;19.258;2023-04-01T06:25:44;454.02;;;434.25;;
76405;SDS011;65234;50.044;19.258;2023-04-01T06:28:30;459.77;;;439.80;;
76405;SDS011;65234;50.044;19.258;2023-04-01T06:31:03;444.85;;;425.70;;
76405;SDS011;65234;50.044;19.258;2023-04-01T06:33:34;448.15;;;428.85;;
76405;SDS011;65234;50.044;19.258;2023-04-01T06:36:09;452.55;;;433.15;;
76405;SDS011;65234;50.044;19.258;2023-04-01T06:38:48;463.42;;;443.35;;
76405;SDS011;65234;50.044;19.258;2023-04-01T06:44:05;448.23;;;428.50;;
76405;SDS011;65234;50.044;19.258;2023-04-01T06:46:37;454.35;;;434.55;;
76405;SDS011;65234;50.044;19.258;2023-04-01T06:49:10;456.73;;;436.90;;
76405;SDS011;65234;50.044;19.258;2023-04-01T06:51:39;453.33;;;433.98;;
76405;SDS011;65234;50.044;19.258;2023-04-01T06:54:10;457.83;;;437.98;;
76405;SDS011;65234;50.044;19.258;2023-04-01T06:56:36;459.02;;;438.48;;
76405;SDS011;65234;50.044;19.258;2023-04-01T06:59:04;456.90;;;437.25;;
76405;SDS011;65234;50.044;19.258;2023-04-01T07:01:32;463.65;;;443.63;;
76405;SDS011;65234;50.044;19.258;2023-04-01T07:04:00;458.02;;;438.02;;
76405;SDS011;65234;50.044;19.258;2023-04-01T07:06:28;467.23;;;446.92;;
76405;SDS011;65234;50.044;19.258;2023-04-01T07:08:54;462.73;;;442.63;;
76405;SDS011;65234;50.044;19.258;2023-04-01T07:11:24;463.67;;;443.92;;
76405;SDS011;65234;50.044;19.258;2023-04-01T07:13:51;459.42;;;439.55;;
76405;SDS011;65234;50.044;19.258;2023-04-01T07:16:19;418.48;;;400.17;;
76405;SDS011;65234;50.044;19.258;2023-04-01T07:18:46;510.65;;;482.27;;
76405;SDS011;65234;50.044;19.258;2023-04-01T07:21:17;413.25;;;395.65;;
76405;SDS011;65234;50.044;19.258;2023-04-01T07:23:44;430.75;;;412.50;;
76405;SDS011;65234;50.044;19.258;2023-04-01T07:26:15;434.52;;;416.08;;
76405;SDS011;65234;50.044;19.258;2023-04-01T07:28:42;437.83;;;419.15;;
76405;SDS011;65234;50.044;19.258;2023-04-01T07:31:11;434.80;;;416.20;;
76405;SDS011;65234;50.044;19.258;2023-04-01T07:33:39;437.23;;;418.73;;
76405;SDS011;65234;50.044;19.258;2023-04-01T07:36:07;436.70;;;417.92;;
76405;SDS011;65234;50.044;19.258;2023-04-01T07:38:39;443.15;;;424.10;;
76405;SDS011;65234;50.044;19.258;2023-04-01T07:41:09;440.52;;;421.83;;
76405;SDS011;65234;50.044;19.258;2023-04-01T07:43:50;439.85;;;421.10;;
76405;SDS011;65234;50.044;19.258;2023-04-01T07:46:20;435.90;;;417.08;;
76405;SDS011;65234;50.044;19.258;2023-04-01T07:48:50;441.98;;;423.05;;
76405;SDS011;65234;50.044;19.258;2023-04-01T07:51:19;443.83;;;424.45;;
76405;SDS011;65234;50.044;19.258;2023-04-01T07:53:48;437.17;;;418.08;;
76405;SDS011;65234;50.044;19.258;2023-04-01T07:56:15;444.00;;;425.00;;
76405;SDS011;65234;50.044;19.258;2023-04-01T07:58:47;446.83;;;427.65;;
76405;SDS011;65234;50.044;19.258;2023-04-01T08:01:17;443.20;;;423.95;;
76405;SDS011;65234;50.044;19.258;2023-04-01T08:03:53;448.05;;;429.00;;
76405;SDS011;65234;50.044;19.258;2023-04-01T08:06:21;446.73;;;427.38;;
76405;SDS011;65234;50.044;19.258;2023-04-01T08:08:53;446.95;;;427.75;;
76405;SDS011;65234;50.044;19.258;2023-04-01T08:11:24;451.70;;;432.17;;
76405;SDS011;65234;50.044;19.258;2023-04-01T08:13:52;453.30;;;433.27;;
76405;SDS011;65234;50.044;19.258;2023-04-01T08:16:23;445.95;;;426.60;;
76405;SDS011;65234;50.044;19.258;2023-04-01T08:18:54;455.63;;;435.77;;
76405;SDS011;65234;50.044;19.258;2023-04-01T08:21:21;453.55;;;434.35;;
76405;SDS011;65234;50.044;19.258;2023-04-01T08:23:49;465.23;;;445.25;;
76405;SDS011;65234;50.044;19.258;2023-04-01T08:26:17;463.55;;;443.58;;
76405;SDS011;65234;50.044;19.258;2023-04-01T08:29:04;428.75;;;410.50;;
76405;SDS011;65234;50.044;19.258;2023-04-01T08:31:33;424.55;;;406.40;;
76405;SDS011;65234;50.044;19.258;2023-04-01T08:34:01;436.83;;;418.30;;
76405;SDS011;65234;50.044;19.258;2023-04-01T08:36:28;447.83;;;428.63;;
76405;SDS011;65234;50.044;19.258;2023-04-01T08:38:57;454.92;;;435.30;;
76405;SDS011;65234;50.044;19.258;2023-04-01T08:44:24;450.75;;;431.42;;
76405;SDS011;65234;50.044;19.258;2023-04-01T08:47:06;452.27;;;433.00;;
76405;SDS011;65234;50.044;19.258;2023-04-01T08:49:38;552.22;;;521.58;;
76405;SDS011;65234;50.044;19.258;2023-04-01T08:52:09;361.67;;;346.63;;
76405;SDS011;65234;50.044;19.258;2023-04-01T08:54:44;373.00;;;357.27;;
76405;SDS011;65234;50.044;19.258;2023-04-01T08:57:12;354.13;;;339.42;;
76405;SDS011;65234;50.044;19.258;2023-04-01T08:59:47;361.48;;;345.75;;
76405;SDS011;65234;50.044;19.258;2023-04-01T09:10:17;361.50;;;346.30;;
76405;SDS011;65234;50.044;19.258;2023-04-01T09:12:58;372.35;;;356.83;;
76405;SDS011;65234;50.044;19.258;2023-04-01T09:15:30;382.30;;;366.20;;
76405;SDS011;65234;50.044;19.258;2023-04-01T09:18:04;286.85;;;273.67;;
76405;SDS011;65234;50.044;19.258;2023-04-01T09:20:39;212.00;;;202.85;;
76405;SDS011;65234;50.044;19.258;2023-04-01T09:25:46;205.60;;;196.98;;
76405;SDS011;65234;50.044;19.258;2023-04-01T09:28:16;212.63;;;203.70;;
76405;SDS011;65234;50.044;19.258;2023-04-01T09:30:57;240.48;;;230.35;;
76405;SDS011;65234;50.044;19.258;2023-04-01T09:33:38;246.07;;;235.75;;
76405;SDS011;65234;50.044;19.258;2023-04-01T09:36:07;262.00;;;251.20;;
76405;SDS011;65234;50.044;19.258;2023-04-01T09:38:38;276.63;;;264.90;;
76405;SDS011;65234;50.044;19.258;2023-04-01T09:41:12;288.23;;;276.15;;
76405;SDS011;65234;50.044;19.258;2023-04-01T09:43:47;310.63;;;296.75;;
76405;SDS011;65234;50.044;19.258;2023-04-01T09:46:21;502.98;;;477.00;;
76405;SDS011;65234;50.044;19.258;2023-04-01T09:48:57;273.85;;;262.27;;
76405;SDS011;65234;50.044;19.258;2023-04-01T09:51:31;279.08;;;267.38;;
76405;SDS011;65234;50.044;19.258;2023-04-01T09:54:02;296.58;;;284.25;;
76405;SDS011;65234;50.044;19.258;2023-04-01T09:56:45;311.55;;;297.92;;
76405;SDS011;65234;50.044;19.258;2023-04-01T09:59:21;190.75;;;182.43;;
76405;SDS011;65234;50.044;19.258;2023-04-01T10:02:08;157.73;;;150.27;;
76405;SDS011;65234;50.044;19.258;2023-04-01T10:04:44;157.93;;;150.80;;
76405;SDS011;65234;50.044;19.258;2023-04-01T10:07:19;157.25;;;150.38;;
76405;SDS011;65234;50.044;19.258;2023-04-01T10:10:05;156.18;;;149.10;;
76405;SDS011;65234;50.044;19.258;2023-04-01T10:12:59;159.13;;;151.90;;
76405;SDS011;65234;50.044;19.258;2023-04-01T10:18:36;160.18;;;152.45;;
76405;SDS011;65234;50.044;19.258;2023-04-01T10:26:38;160.43;;;153.02;;
76405;SDS011;65234;50.044;19.258;2023-04-01T10:29:17;159.75;;;152.63;;
76405;SDS011;65234;50.044;19.258;2023-04-01T10:31:57;163.85;;;156.45;;
76405;SDS011;65234;50.044;19.258;2023-04-01T10:34:46;163.05;;;155.90;;
76405;SDS011;65234;50.044;19.258;2023-04-01T10:37:17;171.23;;;163.80;;
76405;SDS011;65234;50.044;19.258;2023-04-01T10:40:13;170.55;;;163.13;;
76405;SDS011;65234;50.044;19.258;2023-04-01T10:42:54;172.60;;;164.30;;
76405;SDS011;65234;50.044;19.258;2023-04-01T10:48:19;180.60;;;171.95;;
76405;SDS011;65234;50.044;19.258;2023-04-01T10:51:01;184.30;;;176.27;;
76405;SDS011;65234;50.044;19.258;2023-04-01T10:53:34;188.27;;;180.48;;
76405;SDS011;65234;50.044;19.258;2023-04-01T10:56:09;202.85;;;194.05;;
76405;SDS011;65234;50.044;19.258;2023-04-01T10:58:54;190.35;;;181.75;;
76405;SDS011;65234;50.044;19.258;2023-04-01T11:07:14;205.25;;;196.20;;
76405;SDS011;65234;50.044;19.258;2023-04-01T11:09:52;206.50;;;197.68;;
76405;SDS011;65234;50.044;19.258;2023-04-01T11:12:44;214.63;;;205.05;;
76405;SDS011;65234;50.044;19.258;2023-04-01T11:15:26;211.93;;;203.15;;
76405;SDS011;65234;50.044;19.258;2023-04-01T11:18:02;210.40;;;201.65;;
76405;SDS011;65234;50.044;19.258;2023-04-01T11:20:38;219.27;;;210.15;;
76405;SDS011;65234;50.044;19.258;2023-04-01T11:23:19;226.80;;;217.00;;
76405;SDS011;65234;50.044;19.258;2023-04-01T11:25:50;229.80;;;219.77;;
76405;SDS011;65234;50.044;19.258;2023-04-01T11:31:04;234.80;;;225.05;;
76405;SDS011;65234;50.044;19.258;2023-04-01T11:33:38;243.52;;;233.55;;
76405;SDS011;65234;50.044;19.258;2023-04-01T11:36:12;239.45;;;229.70;;
76405;SDS011;65234;50.044;19.258;2023-04-01T11:38:52;244.57;;;234.40;;
76405;SDS011;65234;50.044;19.258;2023-04-01T11:41:22;247.25;;;237.27;;
76405;SDS011;65234;50.044;19.258;2023-04-01T11:43:54;246.95;;;236.65;;
76405;SDS011;65234;50.044;19.258;2023-04-01T11:46:23;251.82;;;241.57;;
76405;SDS011;65234;50.044;19.258;2023-04-01T11:48:52;253.50;;;242.82;;
76405;SDS011;65234;50.044;19.258;2023-04-01T11:51:28;258.42;;;247.77;;
76405;SDS011;65234;50.044;19.258;2023-04-01T11:54:03;262.13;;;251.35;;
76405;SDS011;65234;50.044;19.258;2023-04-01T11:56:36;263.38;;;252.48;;
76405;SDS011;65234;50.044;19.258;2023-04-01T11:59:12;270.58;;;258.92;;
76405;SDS011;65234;50.044;19.258;2023-04-01T12:01:44;270.25;;;259.15;;
76405;SDS011;65234;50.044;19.258;2023-04-01T12:06:59;271.80;;;260.40;;
76405;SDS011;65234;50.044;19.258;2023-04-01T12:09:30;266.33;;;255.18;;
76405;SDS011;65234;50.044;19.258;2023-04-01T12:12:03;267.20;;;256.13;;
76405;SDS011;65234;50.044;19.258;2023-04-01T12:14:36;267.60;;;256.67;;
76405;SDS011;65234;50.044;19.258;2023-04-01T12:17:06;269.58;;;258.55;;
76405;SDS011;65234;50.044;19.258;2023-04-01T12:19:35;273.60;;;262.45;;
76405;SDS011;65234;50.044;19.258;2023-04-01T12:22:09;269.17;;;258.00;;
76405;SDS011;65234;50.044;19.258;2023-04-01T12:24:47;266.17;;;255.00;;
76405;SDS011;65234;50.044;19.258;2023-04-01T12:27:27;269.65;;;258.35;;
76405;SDS011;65234;50.044;19.258;2023-04-01T12:32:39;159.82;;;152.63;;
76405;SDS011;65234;50.044;19.258;2023-04-01T12:35:19;159.05;;;151.73;;
76405;SDS011;65234;50.044;19.258;2023-04-01T12:37:48;163.23;;;155.82;;
76405;SDS011;65234;50.044;19.258;2023-04-01T12:40:23;158.93;;;151.57;;
76405;SDS011;65234;50.044;19.258;2023-04-01T12:43:06;154.60;;;147.57;;
76405;SDS011;65234;50.044;19.258;2023-04-01T12:45:38;163.68;;;155.52;;
76405;SDS011;65234;50.044;19.258;2023-04-01T12:48:11;165.18;;;157.38;;
76405;SDS011;65234;50.044;19.258;2023-04-01T12:50:47;159.50;;;151.75;;
76405;SDS011;65234;50.044;19.258;2023-04-01T12:53:23;163.38;;;155.52;;
76405;SDS011;65234;50.044;19.258;2023-04-01T12:55:55;157.98;;;150.88;;
76405;SDS011;65234;50.044;19.258;2023-04-01T12:58:30;165.63;;;158.07;;
76405;SDS011;65234;50.044;19.258;2023-04-01T13:04:00;161.00;;;153.98;;
76405;SDS011;65234;50.044;19.258;2023-04-01T13:06:32;162.80;;;155.52;;
76405;SDS011;65234;50.044;19.258;2023-04-01T13:09:07;164.15;;;156.75;;
76405;SDS011;65234;50.044;19.258;2023-04-01T13:11:41;163.52;;;156.27;;
76405;SDS011;65234;50.044;19.258;2023-04-01T13:16:46;162.98;;;155.85;;
76405;SDS011;65234;50.044;19.258;2023-04-01T13:19:16;161.43;;;154.10;;
76405;SDS011;65234;50.044;19.258;2023-04-01T13:21:48;160.57;;;153.63;;
76405;SDS011;65234;50.044;19.258;2023-04-01T13:24:19;162.82;;;155.50;;
76405;SDS011;65234;50.044;19.258;2023-04-01T13:26:50;161.65;;;154.68;;
76405;SDS011;65234;50.044;19.258;2023-04-01T13:29:19;158.40;;;151.45;;
76405;SDS011;65234;50.044;19.258;2023-04-01T13:31:50;161.57;;;154.45;;
76405;SDS011;65234;50.044;19.258;2023-04-01T13:34:21;159.63;;;152.25;;
76405;SDS011;65234;50.044;19.258;2023-04-01T13:36:52;164.82;;;157.20;;
76405;SDS011;65234;50.044;19.258;2023-04-01T13:39:23;160.00;;;152.68;;
76405;SDS011;65234;50.044;19.258;2023-04-01T13:41:58;165.25;;;158.05;;
76405;SDS011;65234;50.044;19.258;2023-04-01T13:44:28;159.82;;;152.77;;
76405;SDS011;65234;50.044;19.258;2023-04-01T13:49:57;158.38;;;151.38;;
76405;SDS011;65234;50.044;19.258;2023-04-01T13:52:30;157.30;;;150.10;;
76405;SDS011;65234;50.044;19.258;2023-04-01T13:55:07;164.10;;;154.95;;
76405;SDS011;65234;50.044;19.258;2023-04-01T13:57:47;163.38;;;154.48;;
76405;SDS011;65234;50.044;19.258;2023-04-01T14:00:20;160.75;;;152.73;;
76405;SDS011;65234;50.044;19.258;2023-04-01T14:02:56;162.20;;;153.93;;
76405;SDS011;65234;50.044;19.258;2023-04-01T14:08:10;159.50;;;151.15;;
76405;SDS011;65234;50.044;19.258;2023-04-01T14:10:41;165.23;;;157.07;;
76405;SDS011;65234;50.044;19.258;2023-04-01T14:13:12;164.02;;;155.93;;
76405;SDS011;65234;50.044;19.258;2023-04-01T14:15:42;167.75;;;159.45;;
76405;SDS011;65234;50.044;19.258;2023-04-01T14:18:24;165.70;;;157.43;;
76405;SDS011;65234;50.044;19.258;2023-04-01T14:20:53;166.07;;;157.52;;
76405;SDS011;65234;50.044;19.258;2023-04-01T14:23:29;168.02;;;159.15;;
76405;SDS011;65234;50.044;19.258;2023-04-01T14:26:04;174.00;;;164.93;;
76405;SDS011;65234;50.044;19.258;2023-04-01T14:28:35;177.63;;;168.20;;
76405;SDS011;65234;50.044;19.258;2023-04-01T14:33:56;171.68;;;162.20;;
76405;SDS011;65234;50.044;19.258;2023-04-01T14:36:29;168.60;;;159.85;;
76405;SDS011;65234;50.044;19.258;2023-04-01T14:38:59;176.90;;;167.68;;
76405;SDS011;65234;50.044;19.258;2023-04-01T14:41:29;172.15;;;162.80;;
76405;SDS011;65234;50.044;19.258;2023-04-01T14:46:48;173.05;;;162.75;;
76405;SDS011;65234;50.044;19.258;2023-04-01T14:49:17;176.05;;;166.65;;
76405;SDS011;65234;50.044;19.258;2023-04-01T14:51:46;164.13;;;155.23;;
76405;SDS011;65234;50.044;19.258;2023-04-01T14:54:13;169.88;;;161.52;;
76405;SDS011;65234;50.044;19.258;2023-04-01T14:56:40;174.40;;;165.27;;
76405;SDS011;65234;50.044;19.258;2023-04-01T14:59:25;173.02;;;163.65;;